createdAt,value
2024-01-05T00:01:16.082Z,98913.88
2024-01-05T00:03:42.953Z,98911.78
2024-01-05T00:06:12.375Z,98905.09
2024-01-05T00:08:39.154Z,98894.03
2024-01-05T00:11:05.988Z,98895.25
2024-01-05T00:13:32.832Z,98884.97
2024-01-05T00:15:59.680Z,98877.06
2024-01-05T00:18:28.149Z,98872.34
2024-01-05T00:20:55.018Z,98875.66
2024-01-05T00:23:21.989Z,98875.66
2024-01-05T00:25:48.724Z,98867.47
2024-01-05T00:28:15.537Z,98860.50
2024-01-05T00:30:42.481Z,98855.66
2024-01-05T00:33:09.451Z,98847.59
2024-01-05T00:35:36.244Z,98837.34
2024-01-05T00:38:05.532Z,98839.56
2024-01-05T00:40:32.258Z,98843.56
2024-01-05T00:42:59.072Z,98850.78
2024-01-05T00:45:26.177Z,98854.69
2024-01-05T00:47:53.711Z,98862.84
2024-01-05T00:50:20.565Z,98859.97
2024-01-05T00:52:47.321Z,98856.59
2024-01-05T00:55:14.165Z,98850.63
2024-01-05T00:57:40.963Z,98850.19
2024-01-05T01:00:09.963Z,98852.13
2024-01-05T01:02:38.218Z,98862.88
2024-01-05T01:05:05.628Z,98867.31
2024-01-05T01:07:32.586Z,98863.13
2024-01-05T01:09:59.341Z,98866.88
2024-01-05T01:12:27.373Z,98861.75
2024-01-05T01:14:54.464Z,98858.25
2024-01-05T01:17:23.430Z,98862.00
2024-01-05T01:19:50.459Z,98859.09
2024-01-05T01:22:17.260Z,98854.66
2024-01-05T01:24:44.458Z,98858.81
2024-01-05T01:27:11.327Z,98860.34
2024-01-05T01:29:38.118Z,98862.00
2024-01-05T01:32:05.114Z,98862.97
2024-01-05T01:34:32.025Z,98864.50
2024-01-05T01:36:58.832Z,98857.13
2024-01-05T01:39:27.955Z,98856.56
2024-01-05T01:41:54.811Z,98843.53
2024-01-05T01:44:21.685Z,98836.56
2024-01-05T01:46:49.017Z,98834.63
2024-01-05T01:49:15.854Z,98831.84
2024-01-05T01:51:42.940Z,98827.28
2024-01-05T01:54:09.851Z,98813.66
2024-01-05T01:56:37.894Z,98811.03
2024-01-05T01:59:06.692Z,98809.09
2024-01-05T02:01:33.919Z,98799.78
2024-01-05T02:04:01.386Z,98814.50
2024-01-05T02:06:28.483Z,98811.16
2024-01-05T02:08:56.945Z,98820.28
2024-01-05T02:11:23.681Z,98820.44
2024-01-05T02:13:50.597Z,98820.44
2024-01-05T02:16:17.528Z,98807.34
2024-01-05T02:19:04.489Z,98806.25
2024-01-05T02:21:34.652Z,98802.50
2024-01-05T02:24:01.684Z,98799.44
2024-01-05T02:26:28.567Z,98804.03
2024-01-05T02:28:55.363Z,98798.22
2024-01-05T02:31:22.350Z,98786.00
2024-01-05T02:33:49.259Z,98788.50
2024-01-05T02:36:16.300Z,98789.31
2024-01-05T02:38:43.119Z,98771.28
2024-01-05T02:41:11.051Z,98771.53
2024-01-05T02:43:37.921Z,98772.22
2024-01-05T02:46:04.879Z,98770.16
2024-01-05T02:48:31.760Z,98768.91
2024-01-05T02:50:58.663Z,98756.94
2024-01-05T02:53:25.476Z,98759.88
2024-01-05T02:55:52.256Z,98755.44
2024-01-05T02:58:19.092Z,98753.75
2024-01-05T03:00:46.083Z,98756.25
2024-01-05T03:03:13.150Z,98754.72
2024-01-05T03:05:40.269Z,98756.53
2024-01-05T03:08:07.564Z,98753.59
2024-01-05T03:10:34.486Z,98752.22
2024-01-05T03:13:01.296Z,98748.88
2024-01-05T03:15:28.137Z,98742.38
2024-01-05T03:17:55.144Z,98723.34
2024-01-05T03:20:24.011Z,98720.84
2024-01-05T03:22:50.769Z,98733.31
2024-01-05T03:25:17.633Z,98727.63
2024-01-05T03:27:48.276Z,98720.25
2024-01-05T03:30:15.325Z,98721.50
2024-01-05T03:32:43.296Z,98724.66
2024-01-05T03:35:10.118Z,98726.47
2024-01-05T03:37:37.206Z,98723.13
2024-01-05T03:40:04.176Z,98723.25
2024-01-05T03:42:31.250Z,98706.88
2024-01-05T03:44:58.136Z,98706.72
2024-01-05T03:47:24.902Z,98708.78
2024-01-05T03:49:51.866Z,98700.88
2024-01-05T03:52:18.700Z,98703.09
2024-01-05T03:54:45.504Z,98700.88
2024-01-05T03:57:12.284Z,98704.78
2024-01-05T03:59:39.052Z,98696.97
2024-01-05T04:02:06.017Z,98687.13
2024-01-05T04:04:32.865Z,98686.16
2024-01-05T04:06:59.760Z,98687.97
2024-01-05T04:09:26.846Z,98675.75
2024-01-05T04:11:53.693Z,98681.31
2024-01-05T04:14:20.458Z,98683.44
2024-01-05T04:16:47.465Z,98676.88
2024-01-05T04:19:14.519Z,98675.88
2024-01-05T04:21:41.869Z,98662.44
2024-01-05T04:24:08.998Z,98661.09
2024-01-05T04:26:36.964Z,98663.16
2024-01-05T04:29:03.951Z,98657.16
2024-01-05T04:31:30.766Z,98643.34
2024-01-05T04:33:57.905Z,98640.78
2024-01-05T04:36:24.752Z,98638.56
2024-01-05T04:38:51.554Z,98638.72
2024-01-05T04:41:19.204Z,98630.28
2024-01-05T04:43:47.189Z,98632.47
2024-01-05T04:46:14.069Z,98628.47
2024-01-05T04:48:41.045Z,98628.91
2024-01-05T04:51:08.026Z,98641.28
2024-01-05T04:53:34.833Z,98637.50
2024-01-05T04:56:01.656Z,98643.75
2024-01-05T04:58:28.568Z,98644.75
2024-01-05T05:00:55.635Z,98648.47
2024-01-05T05:03:22.783Z,98649.56
2024-01-05T05:05:49.832Z,98643.59
2024-01-05T05:08:17.749Z,98638.91
2024-01-05T05:10:44.567Z,98641.66
2024-01-05T05:13:11.495Z,98640.16
2024-01-05T05:15:39.392Z,98647.66
2024-01-05T05:18:06.597Z,98640.16
2024-01-05T05:20:34.184Z,98651.94
2024-01-05T05:23:01.143Z,98654.28
2024-01-05T05:25:27.926Z,98656.78
2024-01-05T05:27:54.725Z,98660.00
2024-01-05T05:30:21.613Z,98651.78
2024-01-05T05:32:48.576Z,98648.59
2024-01-05T05:35:15.491Z,98660.00
2024-01-05T05:37:42.228Z,98668.28
2024-01-05T05:40:10.404Z,98656.22
2024-01-05T05:42:37.436Z,98652.75
2024-01-05T05:45:04.486Z,98645.13
2024-01-05T05:47:32.507Z,98645.97
2024-01-05T05:49:59.266Z,98639.03
2024-01-05T05:52:29.854Z,98633.66
2024-01-05T05:54:57.899Z,98644.31
2024-01-05T05:57:24.763Z,98646.94
2024-01-05T05:59:52.978Z,98628.50
2024-01-05T06:02:20.243Z,98642.09
2024-01-05T06:04:47.287Z,98639.88
2024-01-05T06:07:14.502Z,98634.06
2024-01-05T06:09:43.986Z,98641.25
2024-01-05T06:12:11.310Z,98641.41
2024-01-05T06:14:39.373Z,98647.91
2024-01-05T06:17:06.201Z,98653.59
2024-01-05T06:19:33.068Z,98654.84
2024-01-05T06:22:01.204Z,98664.28
2024-01-05T06:24:29.428Z,98668.56
2024-01-05T06:26:56.278Z,98656.25
2024-01-05T06:29:23.037Z,98661.38
2024-01-05T06:31:50.019Z,98664.72
2024-01-05T06:34:17.130Z,98678.72
2024-01-05T06:36:44.354Z,98687.88
2024-01-05T06:39:11.252Z,98692.72
2024-01-05T06:41:38.098Z,98694.28
2024-01-05T06:44:05.850Z,98690.41
2024-01-05T06:46:32.583Z,98690.00
2024-01-05T06:48:59.665Z,98684.31
2024-01-05T06:51:31.094Z,98675.84
2024-01-05T06:53:59.100Z,98689.25
2024-01-05T06:56:29.103Z,98688.06
2024-01-05T06:58:56.696Z,98688.41
2024-01-05T07:01:24.271Z,98675.72
2024-01-05T07:03:51.166Z,98675.00
2024-01-05T07:06:18.104Z,98686.53
2024-01-05T07:08:44.875Z,98679.53
2024-01-05T07:11:23.377Z,98683.72
2024-01-05T07:13:50.549Z,98689.19
2024-01-05T07:16:21.545Z,98681.41
2024-01-05T07:18:49.248Z,98688.91
2024-01-05T07:21:17.182Z,98685.69
2024-01-05T07:23:44.410Z,98682.09
2024-01-05T07:26:11.274Z,98678.63
2024-01-05T07:28:38.825Z,98676.06
2024-01-05T07:31:09.739Z,98682.59
2024-01-05T07:33:43.664Z,98685.28
2024-01-05T07:36:10.469Z,98684.59
2024-01-05T07:38:37.330Z,98688.06
2024-01-05T07:41:04.465Z,98678.34
2024-01-05T07:43:31.595Z,98683.50
2024-01-05T07:45:58.411Z,98681.13
2024-01-05T07:48:26.979Z,98675.03
2024-01-05T07:50:53.756Z,98675.75
2024-01-05T07:53:20.489Z,98668.50
2024-01-05T07:55:47.345Z,98676.25
2024-01-05T07:58:14.371Z,98666.69
2024-01-05T08:00:41.265Z,98667.53
2024-01-05T08:03:08.339Z,98666.69
2024-01-05T08:05:35.250Z,98669.34
2024-01-05T08:08:01.955Z,98665.59
2024-01-05T08:10:28.765Z,98668.63
2024-01-05T08:12:55.606Z,98657.81
2024-01-05T08:15:22.535Z,98658.13
2024-01-05T08:18:04.198Z,98650.22
2024-01-05T08:20:33.842Z,98641.31
2024-01-05T08:23:01.563Z,98640.50
2024-01-05T08:25:28.270Z,98643.28
2024-01-05T08:27:54.987Z,98637.75
2024-01-05T08:30:22.599Z,98638.44
2024-01-05T08:32:53.389Z,98638.28
2024-01-05T08:35:20.234Z,98643.84
2024-01-05T08:37:47.021Z,98636.75
2024-01-05T08:40:13.949Z,98632.06
2024-01-05T08:42:42.280Z,98637.47
2024-01-05T08:45:09.655Z,98638.88
2024-01-05T08:47:45.104Z,98641.34
2024-01-05T08:50:11.965Z,98651.88
2024-01-05T08:52:38.673Z,98650.78
2024-01-05T08:55:06.230Z,98654.81
2024-01-05T08:57:33.066Z,98654.81
2024-01-05T08:59:59.900Z,98649.66
2024-01-05T09:02:27.402Z,98654.81
2024-01-05T09:04:54.280Z,98658.28
2024-01-05T09:07:21.272Z,98659.69
2024-01-05T09:09:48.183Z,98659.81
2024-01-05T09:12:15.299Z,98662.16
2024-01-05T09:14:44.411Z,98649.13
2024-01-05T09:17:11.116Z,98660.22
2024-01-05T09:19:38.078Z,98666.50
2024-01-05T09:22:04.978Z,98672.31
2024-01-05T09:24:32.717Z,98678.97
2024-01-05T09:27:01.625Z,98674.53
2024-01-05T09:29:28.486Z,98680.34
2024-01-05T09:31:55.281Z,98691.75
2024-01-05T09:34:22.195Z,98695.34
2024-01-05T09:36:49.364Z,98684.69
2024-01-05T09:39:36.167Z,98682.88
2024-01-05T09:42:23.449Z,98675.78
2024-01-05T09:45:12.071Z,98679.66
2024-01-05T09:47:59.358Z,98674.13
2024-01-05T09:50:54.320Z,98678.44
2024-01-05T09:53:41.010Z,98682.88
2024-01-05T09:56:28.348Z,98688.56
2024-01-05T09:59:18.510Z,98677.56
2024-01-05T10:02:10.306Z,98676.22
2024-01-05T10:04:57.119Z,98677.44
2024-01-05T10:07:44.645Z,98672.72
2024-01-05T10:11:03.042Z,98686.06
2024-01-05T10:13:56.987Z,98683.97
2024-01-05T10:16:45.066Z,98688.94
2024-01-05T10:19:32.293Z,98678.56
2024-01-05T10:22:20.849Z,98675.63
2024-01-05T10:25:18.015Z,98684.50
2024-01-05T10:28:39.047Z,98688.13
2024-01-05T10:31:25.802Z,98680.63
2024-01-05T10:34:12.842Z,98687.59
2024-01-05T10:37:06.223Z,98690.34
2024-01-05T10:39:53.803Z,98683.97
2024-01-05T10:42:40.705Z,98687.13
2024-01-05T10:45:27.801Z,98676.31
2024-01-05T10:48:15.501Z,98678.78
2024-01-05T10:51:03.095Z,98677.84
2024-01-05T10:53:50.829Z,98670.59
2024-01-05T10:56:40.127Z,98663.53
2024-01-05T10:59:26.866Z,98671.28
2024-01-05T11:02:36.154Z,98660.19
2024-01-05T11:05:24.377Z,98661.72
2024-01-05T11:08:30.145Z,98648.25
2024-01-05T11:11:25.761Z,98646.72
2024-01-05T11:14:23.322Z,98639.91
2024-01-05T11:17:15.875Z,98640.47
2024-01-05T11:20:31.918Z,98626.59
2024-01-05T11:23:20.779Z,98619.06
2024-01-05T11:26:09.702Z,98625.03
2024-01-05T11:28:56.356Z,98626.56
2024-01-05T11:31:49.200Z,98624.75
2024-01-05T11:34:37.568Z,98621.94
2024-01-05T11:37:32.107Z,98621.13
2024-01-05T11:40:34.143Z,98616.66
2024-01-05T11:43:34.567Z,98614.88
2024-01-05T11:46:25.553Z,98613.75
2024-01-05T11:49:35.988Z,98599.88
2024-01-05T11:52:24.360Z,98598.59
2024-01-05T11:55:14.147Z,98592.06
2024-01-05T11:58:00.939Z,98590.09
2024-01-05T12:00:51.760Z,98582.72
2024-01-05T12:03:39.973Z,98588.81
2024-01-05T12:06:26.793Z,98583.41
2024-01-05T12:09:13.510Z,98584.94
2024-01-05T12:12:17.366Z,98582.59
2024-01-05T12:15:10.359Z,98579.78
2024-01-05T12:18:04.813Z,98587.56
2024-01-05T12:21:01.644Z,98587.44
2024-01-05T12:23:53.171Z,98596.00
2024-01-05T12:26:40.779Z,98599.22
2024-01-05T12:29:27.670Z,98594.63
2024-01-05T12:32:14.479Z,98601.44
2024-01-05T12:35:02.331Z,98595.97
2024-01-05T12:37:53.647Z,98595.97
2024-01-05T12:40:40.624Z,98603.91
2024-01-05T12:43:27.282Z,98602.94
2024-01-05T12:46:14.198Z,98608.22
2024-01-05T12:49:18.231Z,98595.16
2024-01-05T12:52:09.114Z,98596.81
2024-01-05T12:54:55.767Z,98594.72
2024-01-05T12:57:42.496Z,98583.16
2024-01-05T13:00:29.893Z,98581.22
2024-01-05T13:03:17.790Z,98581.91
2024-01-05T13:06:09.226Z,98570.34
2024-01-05T13:08:56.775Z,98555.03
2024-01-05T13:11:51.739Z,98559.34
2024-01-05T13:14:41.271Z,98552.09
2024-01-05T13:17:28.016Z,98544.69
2024-01-05T13:20:15.925Z,98545.25
2024-01-05T13:23:02.619Z,98545.91
2024-01-05T13:25:49.357Z,98552.88
2024-01-05T13:28:38.908Z,98548.28
2024-01-05T13:31:25.738Z,98549.09
2024-01-05T13:34:12.703Z,98555.91
2024-01-05T13:37:02.374Z,98548.78
2024-01-05T13:39:49.020Z,98547.78
2024-01-05T13:42:35.883Z,98549.63
2024-01-05T13:45:22.627Z,98553.09
2024-01-05T13:48:09.366Z,98552.94
2024-01-05T13:50:56.087Z,98552.63
2024-01-05T13:53:42.779Z,98556.13
2024-01-05T13:56:31.489Z,98552.63
2024-01-05T13:59:18.181Z,98554.47
2024-01-05T14:02:05.040Z,98556.13
2024-01-05T14:04:52.189Z,98563.38
2024-01-05T14:07:41.598Z,98569.50
2024-01-05T14:10:28.280Z,98571.00
2024-01-05T14:13:14.958Z,98579.06
2024-01-05T14:16:01.676Z,98581.72
2024-01-05T14:18:48.598Z,98572.00
2024-01-05T14:21:35.956Z,98576.91
2024-01-05T14:24:25.546Z,98570.69
2024-01-05T14:27:12.373Z,98574.94
2024-01-05T14:29:59.522Z,98576.53
2024-01-05T14:32:46.442Z,98574.34
2024-01-05T14:35:33.165Z,98581.06
2024-01-05T14:38:19.870Z,98589.28
2024-01-05T14:41:07.083Z,98587.75
2024-01-05T14:43:53.808Z,98590.56
2024-01-05T14:46:40.450Z,98593.22
2024-01-05T14:49:27.342Z,98596.16
2024-01-05T14:52:15.146Z,98603.25
2024-01-05T14:55:02.536Z,98598.13
2024-01-05T14:57:49.268Z,98605.38
2024-01-05T15:00:36.026Z,98612.47
2024-01-05T15:03:23.199Z,98604.69
2024-01-05T15:06:10.639Z,98606.63
2024-01-05T15:08:57.430Z,98613.88
2024-01-05T15:11:44.114Z,98614.03
2024-01-05T15:14:33.403Z,98613.47
2024-01-05T15:17:20.142Z,98613.47
2024-01-05T15:20:07.437Z,98610.19
2024-01-05T15:22:54.235Z,98615.47
2024-01-05T15:25:41.190Z,98610.19
2024-01-05T15:28:29.115Z,98614.78
2024-01-05T15:31:22.206Z,98612.25
2024-01-05T15:34:09.366Z,98613.25
2024-01-05T15:36:56.293Z,98616.19
2024-01-05T15:39:43.282Z,98625.91
2024-01-05T15:42:30.312Z,98621.63
2024-01-05T15:45:17.388Z,98613.81
2024-01-05T15:48:04.616Z,98622.75
2024-01-05T15:50:51.486Z,98620.22
2024-01-05T15:53:38.211Z,98618.59
2024-01-05T15:56:24.957Z,98618.88
2024-01-05T15:59:13.465Z,98622.47
2024-01-05T16:02:00.608Z,98616.53
2024-01-05T16:04:47.338Z,98618.31
2024-01-05T16:07:35.937Z,98621.13
2024-01-05T16:10:22.705Z,98615.97
2024-01-05T16:13:09.548Z,98629.34
2024-01-05T16:16:11.697Z,98628.09
2024-01-05T16:18:59.000Z,98638.53
2024-01-05T16:21:46.013Z,98635.19
2024-01-05T16:24:32.903Z,98631.47
2024-01-05T16:27:19.546Z,98643.56
2024-01-05T16:30:07.516Z,98637.75
2024-01-05T16:32:54.370Z,98637.03
2024-01-05T16:35:41.270Z,98637.34
2024-01-05T16:38:28.280Z,98634.84
2024-01-05T16:41:16.486Z,98640.41
2024-01-05T16:44:03.507Z,98641.94
2024-01-05T16:46:53.034Z,98633.31
2024-01-05T16:49:39.844Z,98634.31
2024-01-05T16:52:29.091Z,98636.13
2024-01-05T16:55:15.887Z,98642.50
2024-01-05T16:58:40.696Z,98642.13
2024-01-05T17:01:33.418Z,98645.44
2024-01-05T17:04:23.868Z,98650.72
2024-01-05T17:07:11.161Z,98653.38
2024-01-05T17:09:58.022Z,98653.38
2024-01-05T17:12:45.115Z,98649.22
2024-01-05T17:15:32.155Z,98652.81
2024-01-05T17:18:19.192Z,98655.59
2024-01-05T17:21:10.097Z,98656.56
2024-01-05T17:23:56.990Z,98659.63
2024-01-05T17:26:43.943Z,98667.69
2024-01-05T17:29:34.094Z,98668.53
2024-01-05T17:32:21.727Z,98667.00
2024-01-05T17:35:09.608Z,98661.72
2024-01-05T17:37:57.029Z,98659.50
2024-01-05T17:40:44.988Z,98666.59
2024-01-05T17:43:31.973Z,98664.78
2024-01-05T17:46:18.851Z,98676.47
2024-01-05T17:49:05.690Z,98670.19
2024-01-05T17:51:52.771Z,98678.41
2024-01-05T17:54:40.984Z,98677.84
2024-01-05T17:57:27.860Z,98675.75
2024-01-05T17:59:54.628Z,98675.91
2024-01-05T18:02:21.377Z,98682.72
2024-01-05T18:04:48.315Z,98680.09
2024-01-05T18:07:17.893Z,98689.81
2024-01-05T18:09:44.834Z,98696.03
2024-01-05T18:12:11.883Z,98693.56
2024-01-05T18:14:41.034Z,98692.03
2024-01-05T18:17:08.054Z,98699.78
2024-01-05T18:19:35.317Z,98701.91
2024-01-05T18:22:02.436Z,98706.88
2024-01-05T18:24:29.514Z,98705.22
2024-01-05T18:26:56.595Z,98707.88
2024-01-05T18:29:28.943Z,98703.72
2024-01-05T18:32:00.202Z,98712.56
2024-01-05T18:34:27.785Z,98713.84
2024-01-05T18:36:55.356Z,98716.59
2024-01-05T18:39:22.525Z,98708.56
2024-01-05T18:41:49.982Z,98704.41
2024-01-05T18:44:16.924Z,98701.88
2024-01-05T18:46:44.033Z,98703.69
2024-01-05T18:49:11.461Z,98701.88
2024-01-05T18:51:38.599Z,98712.44
2024-01-05T18:54:07.362Z,98704.25
2024-01-05T18:56:34.676Z,98706.31
2024-01-05T18:59:03.097Z,98715.63
2024-01-05T19:01:31.004Z,98712.41
2024-01-05T19:03:58.584Z,98707.13
2024-01-05T19:06:25.901Z,98703.41
2024-01-05T19:08:53.067Z,98711.31
2024-01-05T19:11:20.134Z,98710.47
2024-01-05T19:13:46.956Z,98716.31
2024-01-05T19:16:14.220Z,98718.25
2024-01-05T19:18:41.724Z,98718.66
2024-01-05T19:21:11.437Z,98720.03
2024-01-05T19:23:38.311Z,98727.41
2024-01-05T19:26:05.367Z,98732.94
2024-01-05T19:28:32.151Z,98729.88
2024-01-05T19:30:59.230Z,98736.81
2024-01-05T19:33:26.324Z,98739.56
2024-01-05T19:35:53.256Z,98743.91
2024-01-05T19:38:20.080Z,98747.63
2024-01-05T19:40:47.308Z,98752.75
2024-01-05T19:43:15.597Z,98759.28
2024-01-05T19:45:42.636Z,98754.16
2024-01-05T19:48:09.879Z,98764.72
2024-01-05T19:50:38.393Z,98761.25
2024-01-05T19:53:05.906Z,98769.41
2024-01-05T19:55:33.427Z,98767.88
2024-01-05T19:58:00.983Z,98767.31
2024-01-05T20:00:46.858Z,98766.31
2024-01-05T20:03:16.732Z,98758.00
2024-01-05T20:05:43.713Z,98757.88
2024-01-05T20:08:10.676Z,98759.53
2024-01-05T20:10:37.555Z,98761.22
2024-01-05T20:13:08.053Z,98757.28
2024-01-05T20:15:36.332Z,98764.94
2024-01-05T20:18:20.222Z,98759.78
2024-01-05T20:20:47.093Z,98761.59
2024-01-05T20:23:15.065Z,98760.19
2024-01-05T20:25:42.024Z,98766.44
2024-01-05T20:28:08.869Z,98755.91
2024-01-05T20:30:37.126Z,98760.34
2024-01-05T20:33:04.666Z,98761.69
2024-01-05T20:35:31.797Z,98771.28
2024-01-05T20:37:58.543Z,98765.19
2024-01-05T20:40:25.379Z,98773.72
2024-01-05T20:42:52.321Z,98770.22
2024-01-05T20:45:19.242Z,98766.13
2024-01-05T20:47:46.276Z,98768.91
2024-01-05T20:50:13.744Z,98775.00
2024-01-05T20:52:41.301Z,98764.47
2024-01-05T20:55:08.609Z,98764.31
2024-01-05T20:57:36.045Z,98766.94
2024-01-05T21:00:02.985Z,98766.56
2024-01-05T21:02:30.589Z,98766.28
2024-01-05T21:04:57.527Z,98776.09
2024-01-05T21:07:25.745Z,98768.00
2024-01-05T21:09:55.333Z,98767.28
2024-01-05T21:12:23.066Z,98761.19
2024-01-05T21:14:49.964Z,98766.91
2024-01-05T21:17:16.720Z,98764.78
2024-01-05T21:19:43.660Z,98763.41
2024-01-05T21:22:10.680Z,98766.97
2024-01-05T21:24:44.762Z,98765.16
2024-01-05T21:27:13.696Z,98764.06
2024-01-05T21:29:46.482Z,98764.34
2024-01-05T21:32:16.933Z,98763.78
2024-01-05T21:34:44.678Z,98774.06
2024-01-05T21:37:14.449Z,98769.88
2024-01-05T21:39:44.640Z,98770.97
2024-01-05T21:42:12.104Z,98769.56
2024-01-05T21:44:40.256Z,98767.63
2024-01-05T21:47:07.091Z,98768.88
2024-01-05T21:49:36.781Z,98773.88
2024-01-05T21:52:04.371Z,98766.69
2024-01-05T21:54:31.309Z,98764.56
2024-01-05T21:56:59.268Z,98765.81
2024-01-05T21:59:26.632Z,98772.34
2024-01-05T22:01:56.416Z,98775.91
2024-01-05T22:04:24.251Z,98773.69
2024-01-05T22:06:51.285Z,98773.00
2024-01-05T22:09:19.970Z,98776.19
2024-01-05T22:11:47.130Z,98774.38
2024-01-05T22:14:15.016Z,98775.63
2024-01-05T22:16:42.634Z,98782.56
2024-01-05T22:19:12.520Z,98789.50
2024-01-05T22:21:42.194Z,98781.00
2024-01-05T22:24:09.108Z,98772.28
2024-01-05T22:26:36.191Z,98778.53
2024-01-05T22:29:04.326Z,98775.03
2024-01-05T22:31:32.087Z,98785.19
2024-01-05T22:33:59.558Z,98781.00
2024-01-05T22:36:26.732Z,98778.38
2024-01-05T22:38:53.550Z,98780.72
2024-01-05T22:41:22.740Z,98776.53
2024-01-05T22:43:49.569Z,98774.72
2024-01-05T22:46:18.348Z,98773.91
2024-01-05T22:48:47.415Z,98779.03
2024-01-05T22:51:25.550Z,98777.41
2024-01-05T22:53:53.711Z,98769.84
2024-01-05T22:56:21.135Z,98776.78
2024-01-05T22:58:47.893Z,98770.94
2024-01-05T23:01:21.380Z,98772.16
2024-01-05T23:03:49.069Z,98767.16
2024-01-05T23:06:16.647Z,98780.06
2024-01-05T23:08:43.742Z,98782.94
2024-01-05T23:11:11.211Z,98769.84
2024-01-05T23:13:38.558Z,98780.06
2024-01-05T23:16:07.801Z,98764.78
2024-01-05T23:18:35.012Z,98776.47
2024-01-05T23:21:02.087Z,98783.84
2024-01-05T23:23:28.855Z,98780.66
2024-01-05T23:25:55.632Z,98786.28
2024-01-05T23:28:22.462Z,98777.69
2024-01-05T23:30:49.843Z,98766.31
2024-01-05T23:33:18.762Z,98771.69
2024-01-05T23:35:45.713Z,98774.66
2024-01-05T23:38:12.519Z,98772.88
2024-01-05T23:40:39.345Z,98769.53
2024-01-05T23:43:06.197Z,98777.13
2024-01-05T23:45:33.092Z,98765.03
2024-01-05T23:48:00.003Z,98776.53
2024-01-05T23:50:26.827Z,98777.59
2024-01-05T23:52:54.854Z,98778.47
2024-01-05T23:55:22.951Z,98778.59
2024-01-05T23:57:49.845Z,98770.72
